sensor_id;sensor_type;location;lat;lon;timestamp;P1;durP1;ratioP1;P2;durP2;ratioP2
26686;SDS011;14298;50.900;4.648;2022-08-21T00:00:28;10.47;;;3.43;;
26686;SDS011;14298;50.900;4.648;2022-08-21T00:02:58;4.87;;;3.23;;
26686;SDS011;14298;50.900;4.648;2022-08-21T00:05:28;7.60;;;3.80;;
26686;SDS011;14298;50.900;4.648;2022-08-21T00:07:58;6.73;;;3.50;;
26686;SDS011;14298;50.900;4.648;2022-08-21T00:10:26;10.50;;;3.80;;
26686;SDS011;14298;50.900;4.648;2022-08-21T00:12:54;6.80;;;3.20;;
26686;SDS011;14298;50.900;4.648;2022-08-21T00:15:26;6.17;;;3.90;;
26686;SDS011;14298;50.900;4.648;2022-08-21T00:17:55;5.33;;;3.30;;
26686;SDS011;14298;50.900;4.648;2022-08-21T00:20:25;8.73;;;3.07;;
26686;SDS011;14298;50.900;4.648;2022-08-21T00:22:54;7.83;;;3.40;;
26686;SDS011;14298;50.900;4.648;2022-08-21T00:25:22;4.57;;;3.33;;
26686;SDS011;14298;50.900;4.648;2022-08-21T00:27:52;6.83;;;3.27;;
26686;SDS011;14298;50.900;4.648;2022-08-21T00:30:21;9.17;;;3.50;;
26686;SDS011;14298;50.900;4.648;2022-08-21T00:32:51;7.07;;;3.13;;
26686;SDS011;14298;50.900;4.648;2022-08-21T00:35:27;5.63;;;3.20;;
26686;SDS011;14298;50.900;4.648;2022-08-21T00:37:53;7.13;;;3.40;;
26686;SDS011;14298;50.900;4.648;2022-08-21T00:40:25;4.73;;;3.30;;
26686;SDS011;14298;50.900;4.648;2022-08-21T00:42:53;7.93;;;3.23;;
26686;SDS011;14298;50.900;4.648;2022-08-21T00:45:22;4.53;;;2.80;;
26686;SDS011;14298;50.900;4.648;2022-08-21T00:47:51;8.40;;;3.57;;
26686;SDS011;14298;50.900;4.648;2022-08-21T00:50:21;5.27;;;3.33;;
26686;SDS011;14298;50.900;4.648;2022-08-21T00:52:52;6.50;;;3.43;;
26686;SDS011;14298;50.900;4.648;2022-08-21T00:55:20;5.53;;;3.10;;
26686;SDS011;14298;50.900;4.648;2022-08-21T00:57:52;8.23;;;3.17;;
26686;SDS011;14298;50.900;4.648;2022-08-21T01:00:24;6.27;;;3.27;;
26686;SDS011;14298;50.900;4.648;2022-08-21T01:02:56;6.87;;;3.10;;
26686;SDS011;14298;50.900;4.648;2022-08-21T01:05:25;5.03;;;3.30;;
26686;SDS011;14298;50.900;4.648;2022-08-21T01:07:55;8.33;;;3.60;;
26686;SDS011;14298;50.900;4.648;2022-08-21T01:10:26;9.57;;;3.40;;
26686;SDS011;14298;50.900;4.648;2022-08-21T01:12:55;7.13;;;3.50;;
26686;SDS011;14298;50.900;4.648;2022-08-21T01:15:26;8.47;;;3.50;;
26686;SDS011;14298;50.900;4.648;2022-08-21T01:17:56;11.17;;;4.03;;
26686;SDS011;14298;50.900;4.648;2022-08-21T01:20:25;7.73;;;3.43;;
26686;SDS011;14298;50.900;4.648;2022-08-21T01:22:54;6.93;;;3.27;;
26686;SDS011;14298;50.900;4.648;2022-08-21T01:25:22;7.00;;;3.57;;
26686;SDS011;14298;50.900;4.648;2022-08-21T01:27:51;7.77;;;3.60;;
26686;SDS011;14298;50.900;4.648;2022-08-21T01:30:23;10.60;;;3.80;;
26686;SDS011;14298;50.900;4.648;2022-08-21T01:32:53;10.37;;;3.93;;
26686;SDS011;14298;50.900;4.648;2022-08-21T01:35:22;7.27;;;3.80;;
26686;SDS011;14298;50.900;4.648;2022-08-21T01:37:51;6.13;;;3.73;;
26686;SDS011;14298;50.900;4.648;2022-08-21T01:40:19;4.50;;;3.33;;
26686;SDS011;14298;50.900;4.648;2022-08-21T01:42:48;6.67;;;3.27;;
26686;SDS011;14298;50.900;4.648;2022-08-21T01:45:16;6.43;;;3.60;;
26686;SDS011;14298;50.900;4.648;2022-08-21T01:47:45;8.03;;;3.67;;
26686;SDS011;14298;50.900;4.648;2022-08-21T01:50:15;8.10;;;3.60;;
26686;SDS011;14298;50.900;4.648;2022-08-21T01:52:45;7.03;;;3.67;;
26686;SDS011;14298;50.900;4.648;2022-08-21T01:55:15;5.90;;;3.23;;
26686;SDS011;14298;50.900;4.648;2022-08-21T01:57:45;4.97;;;2.93;;
26686;SDS011;14298;50.900;4.648;2022-08-21T02:00:14;7.07;;;3.23;;
26686;SDS011;14298;50.900;4.648;2022-08-21T02:02:45;4.70;;;3.10;;
26686;SDS011;14298;50.900;4.648;2022-08-21T02:05:13;7.40;;;2.80;;
26686;SDS011;14298;50.900;4.648;2022-08-21T02:07:42;4.83;;;3.27;;
26686;SDS011;14298;50.900;4.648;2022-08-21T02:10:14;5.07;;;2.77;;
26686;SDS011;14298;50.900;4.648;2022-08-21T02:12:44;7.97;;;3.00;;
26686;SDS011;14298;50.900;4.648;2022-08-21T02:15:13;7.33;;;2.87;;
26686;SDS011;14298;50.900;4.648;2022-08-21T02:17:47;9.10;;;3.50;;
26686;SDS011;14298;50.900;4.648;2022-08-21T02:20:24;10.30;;;3.23;;
26686;SDS011;14298;50.900;4.648;2022-08-21T02:22:56;4.87;;;3.07;;
26686;SDS011;14298;50.900;4.648;2022-08-21T02:25:25;6.93;;;3.40;;
26686;SDS011;14298;50.900;4.648;2022-08-21T02:27:54;6.50;;;3.00;;
26686;SDS011;14298;50.900;4.648;2022-08-21T02:30:25;5.20;;;3.50;;
26686;SDS011;14298;50.900;4.648;2022-08-21T02:32:55;8.87;;;3.07;;
26686;SDS011;14298;50.900;4.648;2022-08-21T02:35:24;5.03;;;3.10;;
26686;SDS011;14298;50.900;4.648;2022-08-21T02:37:54;10.23;;;3.53;;
26686;SDS011;14298;50.900;4.648;2022-08-21T02:40:25;5.93;;;2.77;;
26686;SDS011;14298;50.900;4.648;2022-08-21T02:42:57;7.57;;;3.30;;
26686;SDS011;14298;50.900;4.648;2022-08-21T02:45:27;9.10;;;3.00;;
26686;SDS011;14298;50.900;4.648;2022-08-21T02:48:03;8.17;;;2.90;;
26686;SDS011;14298;50.900;4.648;2022-08-21T02:50:30;7.27;;;3.43;;
26686;SDS011;14298;50.900;4.648;2022-08-21T02:53:00;6.53;;;3.00;;
26686;SDS011;14298;50.900;4.648;2022-08-21T02:55:29;5.40;;;3.10;;
26686;SDS011;14298;50.900;4.648;2022-08-21T02:57:59;6.53;;;3.00;;
26686;SDS011;14298;50.900;4.648;2022-08-21T03:00:30;4.93;;;3.30;;
26686;SDS011;14298;50.900;4.648;2022-08-21T03:02:59;4.53;;;2.90;;
26686;SDS011;14298;50.900;4.648;2022-08-21T03:05:28;5.30;;;3.33;;
26686;SDS011;14298;50.900;4.648;2022-08-21T03:07:59;8.37;;;3.23;;
26686;SDS011;14298;50.900;4.648;2022-08-21T03:10:29;10.70;;;3.63;;
26686;SDS011;14298;50.900;4.648;2022-08-21T03:12:58;10.20;;;3.67;;
26686;SDS011;14298;50.900;4.648;2022-08-21T03:15:26;5.77;;;3.13;;
26686;SDS011;14298;50.900;4.648;2022-08-21T03:17:55;12.60;;;3.57;;
26686;SDS011;14298;50.900;4.648;2022-08-21T03:20:25;8.57;;;3.63;;
26686;SDS011;14298;50.900;4.648;2022-08-21T03:22:54;5.77;;;2.90;;
26686;SDS011;14298;50.900;4.648;2022-08-21T03:25:23;8.07;;;3.80;;
26686;SDS011;14298;50.900;4.648;2022-08-21T03:27:53;7.10;;;3.60;;
26686;SDS011;14298;50.900;4.648;2022-08-21T03:30:21;8.73;;;3.33;;
26686;SDS011;14298;50.900;4.648;2022-08-21T03:32:50;7.20;;;3.27;;
26686;SDS011;14298;50.900;4.648;2022-08-21T03:35:19;8.40;;;3.60;;
26686;SDS011;14298;50.900;4.648;2022-08-21T03:37:48;5.97;;;3.43;;
26686;SDS011;14298;50.900;4.648;2022-08-21T03:40:17;9.47;;;3.20;;
26686;SDS011;14298;50.900;4.648;2022-08-21T03:42:47;7.50;;;3.00;;
26686;SDS011;14298;50.900;4.648;2022-08-21T03:45:15;11.63;;;3.30;;
26686;SDS011;14298;50.900;4.648;2022-08-21T03:47:55;5.50;;;2.90;;
26686;SDS011;14298;50.900;4.648;2022-08-21T03:50:26;7.90;;;2.97;;
26686;SDS011;14298;50.900;4.648;2022-08-21T03:52:57;10.63;;;3.57;;
26686;SDS011;14298;50.900;4.648;2022-08-21T03:55:26;7.13;;;3.17;;
26686;SDS011;14298;50.900;4.648;2022-08-21T03:57:55;10.57;;;3.40;;
26686;SDS011;14298;50.900;4.648;2022-08-21T04:00:24;11.40;;;3.23;;
26686;SDS011;14298;50.900;4.648;2022-08-21T04:02:52;6.50;;;2.90;;
26686;SDS011;14298;50.900;4.648;2022-08-21T04:05:21;8.20;;;2.60;;
26686;SDS011;14298;50.900;4.648;2022-08-21T04:07:57;5.43;;;2.73;;
26686;SDS011;14298;50.900;4.648;2022-08-21T04:10:28;6.53;;;3.27;;
26686;SDS011;14298;50.900;4.648;2022-08-21T04:12:58;7.23;;;2.70;;
26686;SDS011;14298;50.900;4.648;2022-08-21T04:15:26;6.57;;;2.57;;
26686;SDS011;14298;50.900;4.648;2022-08-21T04:17:55;7.77;;;2.53;;
26686;SDS011;14298;50.900;4.648;2022-08-21T04:20:23;8.13;;;3.20;;
26686;SDS011;14298;50.900;4.648;2022-08-21T04:22:52;8.63;;;2.60;;
26686;SDS011;14298;50.900;4.648;2022-08-21T04:25:22;9.77;;;2.80;;
26686;SDS011;14298;50.900;4.648;2022-08-21T04:27:52;8.03;;;2.67;;
26686;SDS011;14298;50.900;4.648;2022-08-21T04:30:21;7.23;;;2.87;;
26686;SDS011;14298;50.900;4.648;2022-08-21T04:32:50;5.63;;;3.40;;
26686;SDS011;14298;50.900;4.648;2022-08-21T04:35:20;7.53;;;2.90;;
26686;SDS011;14298;50.900;4.648;2022-08-21T04:37:49;8.77;;;3.07;;
26686;SDS011;14298;50.900;4.648;2022-08-21T04:40:18;10.93;;;3.00;;
26686;SDS011;14298;50.900;4.648;2022-08-21T04:43:00;9.47;;;2.93;;
26686;SDS011;14298;50.900;4.648;2022-08-21T04:45:33;10.47;;;3.00;;
26686;SDS011;14298;50.900;4.648;2022-08-21T04:48:08;6.80;;;3.23;;
26686;SDS011;14298;50.900;4.648;2022-08-21T04:50:49;7.07;;;2.60;;
26686;SDS011;14298;50.900;4.648;2022-08-21T04:53:14;8.90;;;2.87;;
26686;SDS011;14298;50.900;4.648;2022-08-21T04:55:43;4.47;;;2.60;;
26686;SDS011;14298;50.900;4.648;2022-08-21T04:58:15;5.93;;;2.70;;
26686;SDS011;14298;50.900;4.648;2022-08-21T05:00:45;9.07;;;3.03;;
26686;SDS011;14298;50.900;4.648;2022-08-21T05:03:14;7.90;;;3.00;;
26686;SDS011;14298;50.900;4.648;2022-08-21T05:05:45;6.43;;;2.97;;
26686;SDS011;14298;50.900;4.648;2022-08-21T05:08:14;9.63;;;2.83;;
26686;SDS011;14298;50.900;4.648;2022-08-21T05:10:45;5.83;;;2.77;;
26686;SDS011;14298;50.900;4.648;2022-08-21T05:13:14;11.90;;;3.10;;
26686;SDS011;14298;50.900;4.648;2022-08-21T05:15:43;9.00;;;2.90;;
26686;SDS011;14298;50.900;4.648;2022-08-21T05:18:11;9.40;;;2.90;;
26686;SDS011;14298;50.900;4.648;2022-08-21T05:20:40;7.83;;;2.23;;
26686;SDS011;14298;50.900;4.648;2022-08-21T05:23:09;4.93;;;2.40;;
26686;SDS011;14298;50.900;4.648;2022-08-21T05:25:39;5.63;;;2.63;;
26686;SDS011;14298;50.900;4.648;2022-08-21T05:28:07;5.37;;;2.40;;
26686;SDS011;14298;50.900;4.648;2022-08-21T05:30:37;8.17;;;2.20;;
26686;SDS011;14298;50.900;4.648;2022-08-21T05:33:06;7.67;;;2.50;;
26686;SDS011;14298;50.900;4.648;2022-08-21T05:35:34;9.63;;;2.80;;
26686;SDS011;14298;50.900;4.648;2022-08-21T05:38:03;6.03;;;2.13;;
26686;SDS011;14298;50.900;4.648;2022-08-21T05:40:32;8.53;;;2.03;;
26686;SDS011;14298;50.900;4.648;2022-08-21T05:43:00;6.57;;;1.90;;
26686;SDS011;14298;50.900;4.648;2022-08-21T05:45:30;9.87;;;2.40;;
26686;SDS011;14298;50.900;4.648;2022-08-21T05:48:09;5.63;;;1.97;;
26686;SDS011;14298;50.900;4.648;2022-08-21T05:50:43;8.87;;;2.10;;
26686;SDS011;14298;50.900;4.648;2022-08-21T05:53:13;5.27;;;1.67;;
26686;SDS011;14298;50.900;4.648;2022-08-21T05:55:43;9.97;;;1.83;;
26686;SDS011;14298;50.900;4.648;2022-08-21T05:58:19;7.73;;;1.80;;
26686;SDS011;14298;50.900;4.648;2022-08-21T06:00:43;6.57;;;1.70;;
26686;SDS011;14298;50.900;4.648;2022-08-21T06:03:15;7.83;;;1.83;;
26686;SDS011;14298;50.900;4.648;2022-08-21T06:05:45;6.77;;;1.80;;
26686;SDS011;14298;50.900;4.648;2022-08-21T06:08:15;8.27;;;1.90;;
26686;SDS011;14298;50.900;4.648;2022-08-21T06:10:44;4.70;;;1.60;;
26686;SDS011;14298;50.900;4.648;2022-08-21T06:13:14;7.30;;;2.17;;
26686;SDS011;14298;50.900;4.648;2022-08-21T06:15:44;4.20;;;1.67;;
26686;SDS011;14298;50.900;4.648;2022-08-21T06:18:12;3.87;;;1.40;;
26686;SDS011;14298;50.900;4.648;2022-08-21T06:20:41;7.83;;;1.73;;
26686;SDS011;14298;50.900;4.648;2022-08-21T06:23:10;6.87;;;1.53;;
26686;SDS011;14298;50.900;4.648;2022-08-21T06:25:39;6.13;;;1.80;;
26686;SDS011;14298;50.900;4.648;2022-08-21T06:28:08;10.23;;;1.80;;
26686;SDS011;14298;50.900;4.648;2022-08-21T06:30:37;10.20;;;2.00;;
26686;SDS011;14298;50.900;4.648;2022-08-21T06:33:07;9.97;;;1.77;;
26686;SDS011;14298;50.900;4.648;2022-08-21T06:35:36;8.17;;;2.20;;
26686;SDS011;14298;50.900;4.648;2022-08-21T06:38:04;8.43;;;1.60;;
26686;SDS011;14298;50.900;4.648;2022-08-21T06:40:33;6.87;;;2.20;;
26686;SDS011;14298;50.900;4.648;2022-08-21T06:43:09;4.57;;;1.80;;
26686;SDS011;14298;50.900;4.648;2022-08-21T06:45:39;9.57;;;1.80;;
26686;SDS011;14298;50.900;4.648;2022-08-21T06:48:07;7.20;;;1.63;;
26686;SDS011;14298;50.900;4.648;2022-08-21T06:50:36;4.80;;;1.97;;
26686;SDS011;14298;50.900;4.648;2022-08-21T06:53:06;7.53;;;1.80;;
26686;SDS011;14298;50.900;4.648;2022-08-21T06:55:36;8.10;;;2.00;;
26686;SDS011;14298;50.900;4.648;2022-08-21T06:58:06;5.40;;;1.77;;
26686;SDS011;14298;50.900;4.648;2022-08-21T07:00:36;5.87;;;1.50;;
26686;SDS011;14298;50.900;4.648;2022-08-21T07:03:22;3.83;;;1.40;;
26686;SDS011;14298;50.900;4.648;2022-08-21T07:05:53;5.40;;;1.40;;
26686;SDS011;14298;50.900;4.648;2022-08-21T07:08:24;4.10;;;1.63;;
26686;SDS011;14298;50.900;4.648;2022-08-21T07:10:54;6.83;;;1.80;;
26686;SDS011;14298;50.900;4.648;2022-08-21T07:13:24;5.80;;;1.43;;
26686;SDS011;14298;50.900;4.648;2022-08-21T07:15:53;3.53;;;1.37;;
26686;SDS011;14298;50.900;4.648;2022-08-21T07:18:22;6.40;;;1.67;;
26686;SDS011;14298;50.900;4.648;2022-08-21T07:20:51;6.60;;;1.87;;
26686;SDS011;14298;50.900;4.648;2022-08-21T07:23:23;7.47;;;1.50;;
26686;SDS011;14298;50.900;4.648;2022-08-21T07:25:54;5.03;;;1.43;;
26686;SDS011;14298;50.900;4.648;2022-08-21T07:28:23;6.07;;;1.60;;
26686;SDS011;14298;50.900;4.648;2022-08-21T07:30:51;6.97;;;1.33;;
26686;SDS011;14298;50.900;4.648;2022-08-21T07:33:22;5.40;;;1.40;;
26686;SDS011;14298;50.900;4.648;2022-08-21T07:35:52;6.80;;;1.60;;
26686;SDS011;14298;50.900;4.648;2022-08-21T07:38:21;4.40;;;1.50;;
26686;SDS011;14298;50.900;4.648;2022-08-21T07:40:50;4.67;;;1.20;;
26686;SDS011;14298;50.900;4.648;2022-08-21T07:43:21;6.90;;;1.20;;
26686;SDS011;14298;50.900;4.648;2022-08-21T07:45:50;6.33;;;1.47;;
26686;SDS011;14298;50.900;4.648;2022-08-21T07:48:23;7.23;;;1.50;;
26686;SDS011;14298;50.900;4.648;2022-08-21T07:50:52;5.03;;;1.20;;
26686;SDS011;14298;50.900;4.648;2022-08-21T07:53:21;5.40;;;1.30;;
26686;SDS011;14298;50.900;4.648;2022-08-21T07:55:50;6.13;;;1.67;;
26686;SDS011;14298;50.900;4.648;2022-08-21T07:58:18;8.70;;;1.52;;
26686;SDS011;14298;50.900;4.648;2022-08-21T08:00:47;3.15;;;0.98;;
26686;SDS011;14298;50.900;4.648;2022-08-21T08:03:16;3.30;;;1.10;;
26686;SDS011;14298;50.900;4.648;2022-08-21T08:05:44;6.08;;;1.30;;
26686;SDS011;14298;50.900;4.648;2022-08-21T08:08:12;7.00;;;1.27;;
26686;SDS011;14298;50.900;4.648;2022-08-21T08:10:41;4.25;;;1.12;;
26686;SDS011;14298;50.900;4.648;2022-08-21T08:13:10;4.53;;;1.47;;
26686;SDS011;14298;50.900;4.648;2022-08-21T08:15:38;3.72;;;1.60;;
26686;SDS011;14298;50.900;4.648;2022-08-21T08:18:06;7.05;;;1.57;;
26686;SDS011;14298;50.900;4.648;2022-08-21T08:20:35;6.15;;;1.35;;
26686;SDS011;14298;50.900;4.648;2022-08-21T08:23:04;5.33;;;1.27;;
26686;SDS011;14298;50.900;4.648;2022-08-21T08:25:32;5.78;;;1.27;;
26686;SDS011;14298;50.900;4.648;2022-08-21T08:28:00;5.03;;;1.35;;
26686;SDS011;14298;50.900;4.648;2022-08-21T08:30:29;4.58;;;1.25;;
26686;SDS011;14298;50.900;4.648;2022-08-21T08:32:57;6.10;;;1.40;;
26686;SDS011;14298;50.900;4.648;2022-08-21T08:35:26;5.40;;;1.65;;
26686;SDS011;14298;50.900;4.648;2022-08-21T08:37:55;5.97;;;1.70;;
26686;SDS011;14298;50.900;4.648;2022-08-21T08:43:02;5.85;;;1.52;;
26686;SDS011;14298;50.900;4.648;2022-08-21T08:45:32;5.63;;;1.80;;
26686;SDS011;14298;50.900;4.648;2022-08-21T08:48:04;5.45;;;1.22;;
26686;SDS011;14298;50.900;4.648;2022-08-21T08:50:54;6.30;;;1.90;;
26686;SDS011;14298;50.900;4.648;2022-08-21T08:53:26;5.92;;;1.40;;
26686;SDS011;14298;50.900;4.648;2022-08-21T08:56:00;5.35;;;1.70;;
26686;SDS011;14298;50.900;4.648;2022-08-21T08:58:34;3.55;;;1.32;;
26686;SDS011;14298;50.900;4.648;2022-08-21T09:01:05;6.37;;;1.52;;
26686;SDS011;14298;50.900;4.648;2022-08-21T09:03:36;7.00;;;1.52;;
26686;SDS011;14298;50.900;4.648;2022-08-21T09:06:12;4.22;;;1.47;;
26686;SDS011;14298;50.900;4.648;2022-08-21T09:11:34;5.97;;;1.87;;
26686;SDS011;14298;50.900;4.648;2022-08-21T09:19:42;5.33;;;1.47;;
26686;SDS011;14298;50.900;4.648;2022-08-21T09:25:24;5.78;;;1.80;;
26686;SDS011;14298;50.900;4.648;2022-08-21T09:27:50;8.88;;;1.70;;
26686;SDS011;14298;50.900;4.648;2022-08-21T09:30:19;5.95;;;1.72;;
26686;SDS011;14298;50.900;4.648;2022-08-21T09:32:50;7.08;;;1.70;;
26686;SDS011;14298;50.900;4.648;2022-08-21T09:35:20;5.03;;;1.65;;
26686;SDS011;14298;50.900;4.648;2022-08-21T09:40:38;4.67;;;1.37;;
26686;SDS011;14298;50.900;4.648;2022-08-21T09:45:44;7.03;;;1.95;;
26686;SDS011;14298;50.900;4.648;2022-08-21T09:48:20;6.30;;;1.72;;
26686;SDS011;14298;50.900;4.648;2022-08-21T09:50:51;6.30;;;1.70;;
26686;SDS011;14298;50.900;4.648;2022-08-21T09:53:22;6.95;;;1.37;;
26686;SDS011;14298;50.900;4.648;2022-08-21T09:55:56;8.18;;;1.70;;
26686;SDS011;14298;50.900;4.648;2022-08-21T09:58:48;10.72;;;1.85;;
26686;SDS011;14298;50.900;4.648;2022-08-21T10:01:19;8.43;;;1.72;;
26686;SDS011;14298;50.900;4.648;2022-08-21T10:03:49;7.12;;;1.70;;
26686;SDS011;14298;50.900;4.648;2022-08-21T10:06:31;7.30;;;1.60;;
26686;SDS011;14298;50.900;4.648;2022-08-21T10:09:05;4.00;;;1.70;;
26686;SDS011;14298;50.900;4.648;2022-08-21T10:11:36;9.10;;;1.70;;
26686;SDS011;14298;50.900;4.648;2022-08-21T10:19:57;3.85;;;1.45;;
26686;SDS011;14298;50.900;4.648;2022-08-21T10:22:48;5.47;;;1.30;;
26686;SDS011;14298;50.900;4.648;2022-08-21T10:25:18;7.37;;;1.60;;
26686;SDS011;14298;50.900;4.648;2022-08-21T10:30:52;3.80;;;1.60;;
26686;SDS011;14298;50.900;4.648;2022-08-21T10:33:25;9.50;;;2.33;;
26686;SDS011;14298;50.900;4.648;2022-08-21T10:38:46;9.48;;;1.50;;
26686;SDS011;14298;50.900;4.648;2022-08-21T10:44:30;4.40;;;1.53;;
26686;SDS011;14298;50.900;4.648;2022-08-21T10:47:14;11.07;;;2.00;;
26686;SDS011;14298;50.900;4.648;2022-08-21T10:52:51;6.53;;;1.75;;
26686;SDS011;14298;50.900;4.648;2022-08-21T10:55:22;11.03;;;2.10;;
26686;SDS011;14298;50.900;4.648;2022-08-21T10:57:57;11.40;;;2.00;;
26686;SDS011;14298;50.900;4.648;2022-08-21T11:00:36;6.72;;;1.62;;
26686;SDS011;14298;50.900;4.648;2022-08-21T11:06:09;8.53;;;2.02;;
26686;SDS011;14298;50.900;4.648;2022-08-21T11:08:43;5.97;;;1.47;;
26686;SDS011;14298;50.900;4.648;2022-08-21T11:11:16;9.40;;;2.00;;
26686;SDS011;14298;50.900;4.648;2022-08-21T11:13:52;9.35;;;2.12;;
26686;SDS011;14298;50.900;4.648;2022-08-21T11:16:40;6.60;;;1.90;;
26686;SDS011;14298;50.900;4.648;2022-08-21T11:19:17;5.90;;;1.77;;
26686;SDS011;14298;50.900;4.648;2022-08-21T11:22:33;9.77;;;2.10;;
26686;SDS011;14298;50.900;4.648;2022-08-21T11:27:08;6.65;;;2.05;;
26686;SDS011;14298;50.900;4.648;2022-08-21T11:29:40;5.55;;;1.75;;
26686;SDS011;14298;50.900;4.648;2022-08-21T11:38:08;15.98;;;1.95;;
26686;SDS011;14298;50.900;4.648;2022-08-21T11:40:51;8.20;;;1.97;;
26686;SDS011;14298;50.900;4.648;2022-08-21T11:46:12;7.83;;;2.13;;
26686;SDS011;14298;50.900;4.648;2022-08-21T11:51:39;7.50;;;1.50;;
26686;SDS011;14298;50.900;4.648;2022-08-21T11:57:03;8.07;;;2.07;;
26686;SDS011;14298;50.900;4.648;2022-08-21T11:59:51;8.70;;;2.17;;
26686;SDS011;14298;50.900;4.648;2022-08-21T12:02:23;7.37;;;2.00;;
26686;SDS011;14298;50.900;4.648;2022-08-21T12:05:00;4.93;;;1.70;;
26686;SDS011;14298;50.900;4.648;2022-08-21T12:07:38;4.23;;;1.50;;
26686;SDS011;14298;50.900;4.648;2022-08-21T12:10:15;7.47;;;1.70;;
26686;SDS011;14298;50.900;4.648;2022-08-21T12:12:41;7.60;;;1.77;;
26686;SDS011;14298;50.900;4.648;2022-08-21T12:17:54;4.70;;;1.80;;
26686;SDS011;14298;50.900;4.648;2022-08-21T12:20:41;10.23;;;1.90;;
26686;SDS011;14298;50.900;4.648;2022-08-21T12:28:47;4.45;;;1.65;;
26686;SDS011;14298;50.900;4.648;2022-08-21T12:31:17;6.20;;;1.80;;
26686;SDS011;14298;50.900;4.648;2022-08-21T12:33:51;8.63;;;1.90;;
26686;SDS011;14298;50.900;4.648;2022-08-21T12:39:20;7.78;;;1.82;;
26686;SDS011;14298;50.900;4.648;2022-08-21T12:41:53;7.53;;;1.82;;
26686;SDS011;14298;50.900;4.648;2022-08-21T12:44:24;6.50;;;2.10;;
26686;SDS011;14298;50.900;4.648;2022-08-21T12:47:13;4.67;;;1.52;;
26686;SDS011;14298;50.900;4.648;2022-08-21T12:49:35;8.73;;;1.80;;
26686;SDS011;14298;50.900;4.648;2022-08-21T12:52:09;6.53;;;1.95;;
26686;SDS011;14298;50.900;4.648;2022-08-21T12:54:38;11.90;;;1.72;;
26686;SDS011;14298;50.900;4.648;2022-08-21T12:57:09;5.92;;;1.65;;
26686;SDS011;14298;50.900;4.648;2022-08-21T12:59:45;5.53;;;2.00;;
26686;SDS011;14298;50.900;4.648;2022-08-21T13:02:18;5.47;;;1.57;;
26686;SDS011;14298;50.900;4.648;2022-08-21T13:04:48;6.90;;;1.62;;
26686;SDS011;14298;50.900;4.648;2022-08-21T13:07:31;7.90;;;2.12;;
26686;SDS011;14298;50.900;4.648;2022-08-21T13:10:14;9.38;;;2.02;;
26686;SDS011;14298;50.900;4.648;2022-08-21T13:12:45;5.33;;;1.40;;
26686;SDS011;14298;50.900;4.648;2022-08-21T13:15:14;6.67;;;2.33;;
26686;SDS011;14298;50.900;4.648;2022-08-21T13:17:47;7.65;;;1.75;;
26686;SDS011;14298;50.900;4.648;2022-08-21T13:20:24;9.43;;;2.47;;
26686;SDS011;14298;50.900;4.648;2022-08-21T13:22:54;10.03;;;2.20;;
26686;SDS011;14298;50.900;4.648;2022-08-21T13:25:29;5.60;;;1.92;;
26686;SDS011;14298;50.900;4.648;2022-08-21T13:30:42;4.83;;;1.67;;
26686;SDS011;14298;50.900;4.648;2022-08-21T13:33:13;6.67;;;2.00;;
26686;SDS011;14298;50.900;4.648;2022-08-21T13:35:57;4.93;;;1.53;;
26686;SDS011;14298;50.900;4.648;2022-08-21T13:38:21;5.40;;;1.43;;
26686;SDS011;14298;50.900;4.648;2022-08-21T13:40:53;4.70;;;1.60;;
26686;SDS011;14298;50.900;4.648;2022-08-21T13:43:27;7.93;;;1.73;;
26686;SDS011;14298;50.900;4.648;2022-08-21T13:45:57;9.83;;;2.10;;
26686;SDS011;14298;50.900;4.648;2022-08-21T13:48:28;5.73;;;1.67;;
26686;SDS011;14298;50.900;4.648;2022-08-21T13:50:58;7.80;;;1.52;;
26686;SDS011;14298;50.900;4.648;2022-08-21T13:53:28;8.37;;;1.60;;
26686;SDS011;14298;50.900;4.648;2022-08-21T13:56:01;7.95;;;1.37;;
26686;SDS011;14298;50.900;4.648;2022-08-21T13:58:41;7.67;;;1.60;;
26686;SDS011;14298;50.900;4.648;2022-08-21T14:01:02;7.60;;;1.90;;
26686;SDS011;14298;50.900;4.648;2022-08-21T14:03:32;6.00;;;1.80;;
26686;SDS011;14298;50.900;4.648;2022-08-21T14:06:19;7.43;;;2.10;;
26686;SDS011;14298;50.900;4.648;2022-08-21T14:08:51;5.57;;;1.60;;
26686;SDS011;14298;50.900;4.648;2022-08-21T14:11:24;5.20;;;1.57;;
26686;SDS011;14298;50.900;4.648;2022-08-21T14:16:26;6.07;;;1.60;;
26686;SDS011;14298;50.900;4.648;2022-08-21T14:21:34;8.83;;;1.70;;
26686;SDS011;14298;50.900;4.648;2022-08-21T14:24:11;7.43;;;2.20;;
26686;SDS011;14298;50.900;4.648;2022-08-21T14:26:47;6.20;;;2.00;;
26686;SDS011;14298;50.900;4.648;2022-08-21T14:29:14;7.30;;;1.57;;
26686;SDS011;14298;50.900;4.648;2022-08-21T14:31:48;5.43;;;1.50;;
26686;SDS011;14298;50.900;4.648;2022-08-21T14:34:18;4.97;;;1.57;;
26686;SDS011;14298;50.900;4.648;2022-08-21T14:36:46;10.87;;;2.00;;
26686;SDS011;14298;50.900;4.648;2022-08-21T14:39:16;6.70;;;1.70;;
26686;SDS011;14298;50.900;4.648;2022-08-21T14:41:45;6.00;;;1.50;;
26686;SDS011;14298;50.900;4.648;2022-08-21T14:44:15;8.27;;;1.80;;
26686;SDS011;14298;50.900;4.648;2022-08-21T14:46:44;4.70;;;1.30;;
26686;SDS011;14298;50.900;4.648;2022-08-21T14:49:13;10.50;;;1.33;;
26686;SDS011;14298;50.900;4.648;2022-08-21T14:51:41;8.27;;;1.63;;
26686;SDS011;14298;50.900;4.648;2022-08-21T14:54:10;4.70;;;1.60;;
26686;SDS011;14298;50.900;4.648;2022-08-21T14:56:38;8.00;;;2.20;;
26686;SDS011;14298;50.900;4.648;2022-08-21T14:59:07;7.70;;;1.70;;
26686;SDS011;14298;50.900;4.648;2022-08-21T15:01:36;13.87;;;2.03;;
26686;SDS011;14298;50.900;4.648;2022-08-21T15:04:06;8.30;;;1.80;;
26686;SDS011;14298;50.900;4.648;2022-08-21T15:06:34;6.85;;;1.70;;
26686;SDS011;14298;50.900;4.648;2022-08-21T15:09:03;5.37;;;1.70;;
26686;SDS011;14298;50.900;4.648;2022-08-21T15:11:32;6.30;;;1.37;;
26686;SDS011;14298;50.900;4.648;2022-08-21T15:14:02;11.40;;;1.90;;
26686;SDS011;14298;50.900;4.648;2022-08-21T15:16:32;5.33;;;1.60;;
26686;SDS011;14298;50.900;4.648;2022-08-21T15:19:02;7.37;;;1.80;;
26686;SDS011;14298;50.900;4.648;2022-08-21T15:21:31;8.83;;;1.85;;
26686;SDS011;14298;50.900;4.648;2022-08-21T15:23:59;8.53;;;1.60;;
26686;SDS011;14298;50.900;4.648;2022-08-21T15:26:27;7.17;;;1.53;;
26686;SDS011;14298;50.900;4.648;2022-08-21T15:28:56;11.30;;;1.75;;
26686;SDS011;14298;50.900;4.648;2022-08-21T15:31:26;13.05;;;2.30;;
26686;SDS011;14298;50.900;4.648;2022-08-21T15:33:55;7.23;;;1.97;;
26686;SDS011;14298;50.900;4.648;2022-08-21T15:36:24;9.65;;;2.20;;
26686;SDS011;14298;50.900;4.648;2022-08-21T15:38:52;12.40;;;1.73;;
26686;SDS011;14298;50.900;4.648;2022-08-21T15:41:20;8.13;;;1.90;;
26686;SDS011;14298;50.900;4.648;2022-08-21T15:43:50;5.85;;;1.87;;
26686;SDS011;14298;50.900;4.648;2022-08-21T15:46:20;8.53;;;1.92;;
26686;SDS011;14298;50.900;4.648;2022-08-21T15:48:48;6.58;;;2.35;;
26686;SDS011;14298;50.900;4.648;2022-08-21T15:51:17;8.50;;;2.00;;
26686;SDS011;14298;50.900;4.648;2022-08-21T15:53:45;7.17;;;1.72;;
26686;SDS011;14298;50.900;4.648;2022-08-21T15:56:24;8.35;;;1.85;;
26686;SDS011;14298;50.900;4.648;2022-08-21T15:58:59;7.50;;;1.67;;
26686;SDS011;14298;50.900;4.648;2022-08-21T16:01:29;9.83;;;1.90;;
26686;SDS011;14298;50.900;4.648;2022-08-21T16:03:57;6.65;;;1.60;;
26686;SDS011;14298;50.900;4.648;2022-08-21T16:06:26;9.60;;;1.90;;
26686;SDS011;14298;50.900;4.648;2022-08-21T16:08:54;7.55;;;1.80;;
26686;SDS011;14298;50.900;4.648;2022-08-21T16:11:22;8.10;;;1.77;;
26686;SDS011;14298;50.900;4.648;2022-08-21T16:13:51;8.28;;;2.00;;
26686;SDS011;14298;50.900;4.648;2022-08-21T16:16:20;6.15;;;2.20;;
26686;SDS011;14298;50.900;4.648;2022-08-21T16:18:50;5.62;;;2.08;;
26686;SDS011;14298;50.900;4.648;2022-08-21T16:21:19;8.00;;;1.67;;
26686;SDS011;14298;50.900;4.648;2022-08-21T16:23:47;7.85;;;1.72;;